createdAt,value
2018-10-05T00:01:10.724Z,33.63
2018-10-05T00:03:39.744Z,33.80
2018-10-05T00:06:08.942Z,34.90
2018-10-05T00:08:37.789Z,37.17
2018-10-05T00:11:07.122Z,32.70
2018-10-05T00:13:36.440Z,30.80
2018-10-05T00:16:05.788Z,32.73
2018-10-05T00:18:34.745Z,38.27
2018-10-05T00:21:04.091Z,25.80
2018-10-05T00:23:33.009Z,30.57
2018-10-05T00:26:02.256Z,32.43
2018-10-05T00:28:31.569Z,32.80
2018-10-05T00:31:00.898Z,38.07
2018-10-05T00:33:30.232Z,32.03
2018-10-05T00:35:59.563Z,34.50
2018-10-05T00:38:28.561Z,29.03
2018-10-05T00:40:59.894Z,41.87
2018-10-05T00:43:29.797Z,33.53
2018-10-05T00:45:58.716Z,37.90
2018-10-05T00:48:27.988Z,30.10
2018-10-05T00:50:56.905Z,35.90
2018-10-05T00:53:25.768Z,31.90
2018-10-05T00:55:55.041Z,40.87
2018-10-05T00:58:23.994Z,34.53
2018-10-05T01:00:53.239Z,42.03
2018-10-05T01:03:22.161Z,42.43
2018-10-05T01:05:51.406Z,36.13
2018-10-05T01:08:20.738Z,44.80
2018-10-05T01:10:49.707Z,38.87
2018-10-05T01:13:18.953Z,40.93
2018-10-05T01:15:48.362Z,37.40
2018-10-05T01:18:18.900Z,37.13
2018-10-05T01:20:48.595Z,30.90
2018-10-05T01:23:17.591Z,41.00
2018-10-05T01:25:46.483Z,34.47
2018-10-05T01:28:15.302Z,30.83
2018-10-05T01:30:44.544Z,34.97
2018-10-05T01:33:13.506Z,38.03
2018-10-05T01:35:42.766Z,34.23
2018-10-05T01:38:15.651Z,30.03
2018-10-05T01:40:44.471Z,36.30
2018-10-05T01:43:13.778Z,27.23
2018-10-05T01:45:43.131Z,28.77
2018-10-05T01:48:12.226Z,29.33
2018-10-05T01:50:41.104Z,23.77
2018-10-05T01:53:10.366Z,27.47
2018-10-05T01:55:39.762Z,28.53
2018-10-05T01:58:08.713Z,20.57
2018-10-05T02:00:38.005Z,25.53
2018-10-05T02:03:06.933Z,17.43
2018-10-05T02:05:35.830Z,16.83
2018-10-05T02:08:04.725Z,17.33
2018-10-05T02:10:33.946Z,18.73
2018-10-05T02:13:02.904Z,16.70
2018-10-05T02:15:32.270Z,17.37
2018-10-05T02:18:01.225Z,15.73
2018-10-05T02:20:30.158Z,15.10
2018-10-05T02:22:59.410Z,16.17
2018-10-05T02:25:28.334Z,18.90
2018-10-05T02:27:57.201Z,12.70
2018-10-05T02:30:26.063Z,12.83
2018-10-05T02:32:55.392Z,13.53
2018-10-05T02:35:24.682Z,15.13
2018-10-05T02:37:53.589Z,11.77
2018-10-05T02:40:22.502Z,11.90
2018-10-05T02:42:51.770Z,20.10
2018-10-05T02:45:21.216Z,12.20
2018-10-05T02:47:50.527Z,14.00
2018-10-05T02:50:19.457Z,14.80
2018-10-05T02:52:48.718Z,13.60
2018-10-05T02:55:17.657Z,12.97
2018-10-05T02:57:47.114Z,12.20
2018-10-05T03:02:25.514Z,10.13
2018-10-05T03:04:54.860Z,13.50
2018-10-05T03:07:24.245Z,13.20
2018-10-05T03:09:53.181Z,16.53
2018-10-05T03:12:22.459Z,11.90
2018-10-05T03:14:51.819Z,13.10
2018-10-05T03:17:21.140Z,12.77
2018-10-05T03:19:50.535Z,10.27
2018-10-05T03:22:19.960Z,11.13
2018-10-05T03:24:49.290Z,13.77
2018-10-05T03:27:19.178Z,10.37
2018-10-05T03:29:48.435Z,12.23
2018-10-05T03:32:23.850Z,13.67
2018-10-05T03:34:52.726Z,10.93
2018-10-05T03:37:22.102Z,11.13
2018-10-05T03:39:51.724Z,12.30
2018-10-05T03:42:20.673Z,11.73
2018-10-05T03:44:49.605Z,22.07
2018-10-05T03:47:18.912Z,12.50
2018-10-05T03:49:47.834Z,15.50
2018-10-05T03:52:17.008Z,13.33
2018-10-05T03:54:46.257Z,10.23
2018-10-05T03:57:15.604Z,15.27
2018-10-05T03:59:44.998Z,16.17
2018-10-05T04:02:13.905Z,13.77
2018-10-05T04:04:43.167Z,15.57
2018-10-05T04:07:12.123Z,12.73
2018-10-05T04:09:40.978Z,18.13
2018-10-05T04:12:09.851Z,18.93
2018-10-05T04:14:39.125Z,16.77
2018-10-05T04:17:08.430Z,21.27
2018-10-05T04:19:37.780Z,13.37
2018-10-05T04:22:07.139Z,14.63
2018-10-05T04:24:36.538Z,12.60
2018-10-05T04:27:05.944Z,13.43
2018-10-05T04:29:35.254Z,13.47
2018-10-05T04:32:04.654Z,10.60
2018-10-05T04:34:33.592Z,12.27
2018-10-05T04:37:02.884Z,18.37
2018-10-05T04:39:31.826Z,15.77
2018-10-05T04:42:01.072Z,15.03
2018-10-05T04:44:30.452Z,11.07
2018-10-05T04:46:59.413Z,10.00
2018-10-05T04:49:28.295Z,14.93
2018-10-05T04:51:57.600Z,12.67
2018-10-05T04:54:26.533Z,11.43
2018-10-05T04:56:55.910Z,17.17
2018-10-05T04:59:24.787Z,12.67
2018-10-05T05:01:57.681Z,11.40
2018-10-05T05:04:26.908Z,12.57
2018-10-05T05:06:55.908Z,12.20
2018-10-05T05:09:24.804Z,12.20
2018-10-05T05:11:54.198Z,12.97
2018-10-05T05:14:23.466Z,13.67
2018-10-05T05:16:52.441Z,13.07
2018-10-05T05:19:21.290Z,13.20
2018-10-05T05:21:50.520Z,10.43
2018-10-05T05:24:19.908Z,16.83
2018-10-05T05:26:48.848Z,13.97
2018-10-05T05:29:17.820Z,15.60
2018-10-05T05:31:47.059Z,14.63
2018-10-05T05:34:16.614Z,15.73
2018-10-05T05:36:45.609Z,13.23
2018-10-05T05:39:14.461Z,13.43
2018-10-05T05:41:43.372Z,11.50
2018-10-05T05:44:12.777Z,9.80
2018-10-05T05:46:42.881Z,14.33
2018-10-05T05:49:11.978Z,15.37
2018-10-05T05:51:41.229Z,11.50
2018-10-05T05:54:10.303Z,12.93
2018-10-05T05:56:39.787Z,13.03
2018-10-05T05:59:08.610Z,13.77
2018-10-05T06:01:37.433Z,14.13
2018-10-05T06:04:06.659Z,11.50
2018-10-05T06:06:35.665Z,18.23
2018-10-05T06:09:06.180Z,11.77
2018-10-05T06:11:35.014Z,13.57
2018-10-05T06:14:03.894Z,10.80
2018-10-05T06:16:32.878Z,14.40
2018-10-05T06:19:01.614Z,17.53
2018-10-05T06:21:30.516Z,11.77
2018-10-05T06:23:59.388Z,15.53
2018-10-05T06:26:28.610Z,14.10
2018-10-05T06:28:57.570Z,13.37
2018-10-05T06:31:26.922Z,15.33
2018-10-05T06:33:56.294Z,18.83
2018-10-05T06:36:25.298Z,13.63
2018-10-05T06:38:55.753Z,23.73
2018-10-05T06:41:25.015Z,18.90
2018-10-05T06:43:53.860Z,21.20
2018-10-05T06:46:23.197Z,23.00
2018-10-05T06:48:52.854Z,20.67
2018-10-05T06:51:22.146Z,148.37
2018-10-05T06:53:51.094Z,19.37
2018-10-05T06:56:19.964Z,12.13
2018-10-05T06:58:48.868Z,11.40
2018-10-05T07:01:18.123Z,14.10
2018-10-05T07:03:47.037Z,15.17
2018-10-05T07:06:16.273Z,13.30
2018-10-05T07:08:45.605Z,9.13
2018-10-05T07:11:14.979Z,12.23
2018-10-05T07:13:44.330Z,8.37
2018-10-05T07:16:13.618Z,11.80
2018-10-05T07:18:42.592Z,9.43
2018-10-05T07:21:11.864Z,13.13
2018-10-05T07:23:40.810Z,8.23
2018-10-05T07:26:09.682Z,11.47
2018-10-05T07:28:38.571Z,13.33
2018-10-05T07:31:07.394Z,8.53
2018-10-05T07:33:36.229Z,9.27
2018-10-05T07:36:05.495Z,4.90
2018-10-05T07:38:34.912Z,10.63
2018-10-05T07:41:03.868Z,8.37
2018-10-05T07:43:32.709Z,5.90
2018-10-05T07:46:01.962Z,5.17
2018-10-05T07:48:31.519Z,5.97
2018-10-05T07:51:00.406Z,5.97
2018-10-05T07:53:29.598Z,7.63
2018-10-05T07:55:58.594Z,6.05
2018-10-05T07:58:27.504Z,5.67
2018-10-05T08:00:56.770Z,8.37
2018-10-05T08:03:25.682Z,8.00
2018-10-05T08:05:54.879Z,8.03
2018-10-05T08:08:23.850Z,11.30
2018-10-05T08:10:52.676Z,7.07
2018-10-05T08:13:21.491Z,10.13
2018-10-05T08:15:50.301Z,9.25
2018-10-05T08:18:19.595Z,7.90
2018-10-05T08:20:48.549Z,7.93
2018-10-05T08:23:17.833Z,11.47
2018-10-05T08:25:53.445Z,9.03
2018-10-05T08:28:22.887Z,10.80
2018-10-05T08:30:51.793Z,6.62
2018-10-05T08:33:20.632Z,13.08
2018-10-05T08:35:49.505Z,7.43
2018-10-05T08:38:18.387Z,6.77
2018-10-05T08:40:47.194Z,9.57
2018-10-05T08:43:16.024Z,6.43
2018-10-05T08:45:45.338Z,6.13
2018-10-05T08:48:14.665Z,6.13
2018-10-05T08:50:44.067Z,7.10
2018-10-05T08:53:13.025Z,4.20
2018-10-05T08:55:42.233Z,19.80
2018-10-05T08:58:11.151Z,20.10
2018-10-05T09:00:39.993Z,9.47
2018-10-05T09:03:08.822Z,7.43
2018-10-05T09:05:38.170Z,7.90
2018-10-05T09:08:07.094Z,18.87
2018-10-05T09:10:35.894Z,6.23
2018-10-05T09:13:05.112Z,6.43
2018-10-05T09:15:34.128Z,10.10
2018-10-05T09:18:03.459Z,7.70
2018-10-05T09:20:32.447Z,5.90
2018-10-05T09:23:01.376Z,20.23
2018-10-05T09:25:30.638Z,25.93
2018-10-05T09:27:59.583Z,11.00
2018-10-05T09:30:28.667Z,6.47
2018-10-05T09:32:57.962Z,7.00
2018-10-05T09:35:26.877Z,6.70
2018-10-05T09:37:56.189Z,7.33
2018-10-05T09:40:25.386Z,20.50
2018-10-05T09:42:54.245Z,8.38
2018-10-05T09:45:23.100Z,7.07
2018-10-05T09:47:51.985Z,8.77
2018-10-05T09:50:21.233Z,6.47
2018-10-05T09:52:50.604Z,7.20
2018-10-05T09:55:20.078Z,6.43
2018-10-05T09:57:49.355Z,6.43
2018-10-05T10:00:23.645Z,10.65
2018-10-05T10:02:58.221Z,6.17
2018-10-05T10:05:27.258Z,8.10
2018-10-05T10:07:56.780Z,7.17
2018-10-05T10:10:26.226Z,8.18
2018-10-05T10:12:55.525Z,10.55
2018-10-05T10:15:24.950Z,4.75
2018-10-05T10:17:54.318Z,7.15
2018-10-05T10:20:23.239Z,5.28
2018-10-05T10:22:52.602Z,5.95
2018-10-05T10:25:21.954Z,5.08
2018-10-05T10:27:51.181Z,8.65
2018-10-05T10:30:20.382Z,5.67
2018-10-05T10:32:49.697Z,7.70
2018-10-05T10:35:19.052Z,4.80
2018-10-05T10:37:48.001Z,7.70
2018-10-05T10:40:17.066Z,7.70
2018-10-05T10:42:46.369Z,9.58
2018-10-05T10:45:15.654Z,6.87
2018-10-05T10:47:44.558Z,7.35
2018-10-05T10:50:13.406Z,4.60
2018-10-05T10:52:42.311Z,7.97
2018-10-05T10:55:11.239Z,10.85
2018-10-05T10:57:40.045Z,5.75
2018-10-05T11:00:08.938Z,7.60
2018-10-05T11:02:37.793Z,6.30
2018-10-05T11:05:07.072Z,7.12
2018-10-05T11:07:36.434Z,5.15
2018-10-05T11:10:05.459Z,9.38
2018-10-05T11:12:34.982Z,6.70
2018-10-05T11:15:03.966Z,7.65
2018-10-05T11:17:32.772Z,5.78
2018-10-05T11:20:01.656Z,7.42
2018-10-05T11:22:30.530Z,7.12
2018-10-05T11:24:59.366Z,11.45
2018-10-05T11:27:28.662Z,6.22
2018-10-05T11:29:57.658Z,8.68
2018-10-05T11:32:26.491Z,7.78
2018-10-05T11:34:55.810Z,7.60
2018-10-05T11:37:25.187Z,8.28
2018-10-05T11:39:54.139Z,6.62
2018-10-05T11:42:23.003Z,6.50
2018-10-05T11:44:51.871Z,9.48
2018-10-05T11:47:20.789Z,12.95
2018-10-05T11:49:49.604Z,4.70
2018-10-05T11:52:18.862Z,10.88
2018-10-05T11:54:47.881Z,8.28
2018-10-05T11:57:16.794Z,8.48
2018-10-05T11:59:46.120Z,7.92
2018-10-05T12:02:15.693Z,5.30
2018-10-05T12:04:44.617Z,6.80
2018-10-05T12:07:42.705Z,7.62
2018-10-05T12:10:11.924Z,9.87
2018-10-05T12:12:44.409Z,9.27
2018-10-05T12:15:13.340Z,6.60
2018-10-05T12:17:42.626Z,6.60
2018-10-05T12:20:11.526Z,5.92
2018-10-05T12:22:40.362Z,10.30
2018-10-05T12:25:09.750Z,9.50
2018-10-05T12:27:42.134Z,9.13
2018-10-05T12:30:13.866Z,8.08
2018-10-05T12:32:43.639Z,7.37
2018-10-05T12:35:12.906Z,8.35
2018-10-05T12:37:41.837Z,10.90
2018-10-05T12:40:11.062Z,5.60
2018-10-05T12:42:40.435Z,7.55
2018-10-05T12:45:09.985Z,14.60
2018-10-05T12:47:39.414Z,10.32
2018-10-05T12:50:08.748Z,4.97
2018-10-05T12:52:37.993Z,8.80
2018-10-05T12:55:06.981Z,7.40
2018-10-05T12:57:36.170Z,7.37
2018-10-05T13:00:05.647Z,6.78
2018-10-05T13:02:34.573Z,5.45
2018-10-05T13:05:04.067Z,4.45
2018-10-05T13:07:32.974Z,6.50
2018-10-05T13:10:01.833Z,6.95
2018-10-05T13:12:31.025Z,5.90
2018-10-05T13:15:00.053Z,7.50
2018-10-05T13:17:29.302Z,5.87
2018-10-05T13:19:58.935Z,7.67
2018-10-05T13:22:28.333Z,9.43
2018-10-05T13:24:57.918Z,10.38
2018-10-05T13:27:26.765Z,6.60
2018-10-05T13:33:05.400Z,6.47
2018-10-05T13:47:29.787Z,9.55
2018-10-05T13:49:58.634Z,8.75
2018-10-05T13:52:27.798Z,7.10
2018-10-05T13:54:56.698Z,5.47
2018-10-05T13:57:25.514Z,8.75
2018-10-05T13:59:54.694Z,6.92
2018-10-05T14:02:23.585Z,7.22
2018-10-05T14:04:52.362Z,7.28
2018-10-05T14:07:21.699Z,9.38
2018-10-05T14:09:51.100Z,7.30
2018-10-05T14:12:20.029Z,6.33
2018-10-05T14:14:48.821Z,5.33
2018-10-05T14:17:18.086Z,5.58
2018-10-05T14:19:47.406Z,6.37
2018-10-05T14:22:16.698Z,6.35
2018-10-05T14:24:46.123Z,5.75
2018-10-05T14:27:15.458Z,7.35
2018-10-05T14:29:44.495Z,5.80
2018-10-05T14:32:13.379Z,6.87
2018-10-05T14:34:42.242Z,7.85
2018-10-05T14:37:11.590Z,4.47
2018-10-05T14:39:41.035Z,8.53
2018-10-05T14:42:10.401Z,7.83
2018-10-05T14:44:39.308Z,4.83
2018-10-05T14:47:08.628Z,8.93
2018-10-05T14:49:37.716Z,7.87
2018-10-05T14:52:06.915Z,6.70
2018-10-05T14:54:36.416Z,9.08
2018-10-05T14:57:05.799Z,5.03
2018-10-05T14:59:34.727Z,12.20
2018-10-05T15:02:03.949Z,8.53
2018-10-05T15:04:33.293Z,5.92
2018-10-05T15:07:02.316Z,7.35
2018-10-05T15:09:31.071Z,8.05
2018-10-05T15:12:01.491Z,7.20
2018-10-05T15:14:30.314Z,7.62
2018-10-05T15:16:59.616Z,5.50
2018-10-05T15:19:28.590Z,7.05
2018-10-05T15:21:57.428Z,7.22
2018-10-05T15:24:26.266Z,7.83
2018-10-05T15:26:55.178Z,7.58
2018-10-05T15:29:24.065Z,4.87
2018-10-05T15:31:52.893Z,5.33
2018-10-05T15:34:22.149Z,7.47
2018-10-05T15:36:51.153Z,8.37
2018-10-05T15:39:19.983Z,6.17
2018-10-05T15:41:49.212Z,6.77
2018-10-05T15:44:18.534Z,7.13
2018-10-05T15:46:50.641Z,7.53
2018-10-05T15:49:19.502Z,5.73
2018-10-05T15:51:48.663Z,8.17
2018-10-05T15:54:17.585Z,9.10
2018-10-05T15:56:46.487Z,8.77
2018-10-05T15:59:15.509Z,4.37
2018-10-05T16:01:44.377Z,7.87
2018-10-05T16:07:35.855Z,7.73
2018-10-05T16:10:04.714Z,10.60
2018-10-05T16:12:33.830Z,6.77
2018-10-05T16:15:02.738Z,7.23
2018-10-05T16:17:35.099Z,6.70
2018-10-05T16:20:04.648Z,8.40
2018-10-05T16:22:33.599Z,9.50
2018-10-05T16:25:02.490Z,7.70
2018-10-05T16:27:31.790Z,7.20
2018-10-05T16:30:00.693Z,10.50
2018-10-05T16:32:29.549Z,5.50
2018-10-05T16:34:58.809Z,8.10
2018-10-05T16:37:27.853Z,8.83
2018-10-05T16:39:56.604Z,7.47
2018-10-05T16:42:25.504Z,8.13
2018-10-05T16:44:54.754Z,9.33
2018-10-05T16:47:24.125Z,8.87
2018-10-05T16:55:57.206Z,9.10
2018-10-05T16:58:27.043Z,8.57
2018-10-05T17:01:13.397Z,6.50
2018-10-05T17:03:45.267Z,12.40
2018-10-05T17:06:14.191Z,8.10
2018-10-05T17:08:47.357Z,10.90
2018-10-05T17:11:16.301Z,11.13
2018-10-05T17:13:45.148Z,13.67
2018-10-05T17:16:13.998Z,11.40
2018-10-05T17:21:38.418Z,9.47
2018-10-05T17:24:08.761Z,11.43
2018-10-05T17:26:37.583Z,9.87
2018-10-05T17:29:06.833Z,9.40
2018-10-05T17:31:36.387Z,9.73
2018-10-05T17:34:05.314Z,17.50
2018-10-05T17:36:34.555Z,10.27
2018-10-05T17:39:05.086Z,10.17
2018-10-05T17:41:34.329Z,10.20
2018-10-05T17:44:03.406Z,11.87
2018-10-05T17:46:33.034Z,11.07
2018-10-05T17:49:02.031Z,8.83
2018-10-05T17:51:30.904Z,7.73
2018-10-05T17:53:59.765Z,12.93
2018-10-05T17:56:28.632Z,12.07
2018-10-05T17:58:57.517Z,10.30
2018-10-05T18:01:26.476Z,11.43
2018-10-05T18:03:55.389Z,14.67
2018-10-05T18:06:24.286Z,11.80
2018-10-05T18:08:53.524Z,16.57
2018-10-05T18:11:22.457Z,11.97
2018-10-05T18:13:51.313Z,16.50
2018-10-05T18:16:20.541Z,10.80
2018-10-05T18:18:49.493Z,10.83
2018-10-05T18:21:18.727Z,16.13
2018-10-05T18:23:47.631Z,15.13
2018-10-05T18:26:16.706Z,14.63
2018-10-05T18:28:46.326Z,15.70
2018-10-05T18:31:15.275Z,15.50
2018-10-05T18:33:44.239Z,16.23
2018-10-05T18:36:13.004Z,14.77
2018-10-05T18:38:41.857Z,16.43
2018-10-05T18:41:10.774Z,14.80
2018-10-05T18:43:40.155Z,18.63
2018-10-05T18:46:09.597Z,20.47
2018-10-05T18:48:38.423Z,13.73
2018-10-05T18:51:07.309Z,11.50
2018-10-05T18:53:36.524Z,12.03
2018-10-05T18:56:10.993Z,12.10
2018-10-05T18:58:39.857Z,11.70
2018-10-05T19:01:08.701Z,12.63
2018-10-05T19:03:37.615Z,12.63
2018-10-05T19:06:06.425Z,12.30
2018-10-05T19:08:35.233Z,19.90
2018-10-05T19:11:04.383Z,12.83
2018-10-05T19:13:33.262Z,13.33
2018-10-05T19:16:02.153Z,9.33
2018-10-05T19:18:30.945Z,9.97
2018-10-05T19:21:00.246Z,9.13
2018-10-05T19:23:29.207Z,7.80
2018-10-05T19:25:58.337Z,11.93
2018-10-05T19:28:27.597Z,12.90
2018-10-05T19:30:56.511Z,15.97
2018-10-05T19:33:25.737Z,11.83
2018-10-05T19:35:55.127Z,14.93
2018-10-05T19:38:24.073Z,11.10
2018-10-05T19:40:52.922Z,12.73
2018-10-05T19:43:22.310Z,9.80
2018-10-05T19:45:51.265Z,8.23
2018-10-05T19:48:20.870Z,13.27
2018-10-05T19:50:59.644Z,15.37
2018-10-05T19:53:35.156Z,13.63
2018-10-05T20:04:51.644Z,12.70
2018-10-05T20:07:21.022Z,11.00
2018-10-05T20:09:50.004Z,10.90
2018-10-05T20:12:19.311Z,9.33
2018-10-05T20:14:48.683Z,7.90
2018-10-05T20:17:18.078Z,9.97
2018-10-05T20:19:47.031Z,10.80
2018-10-05T20:22:15.874Z,9.10
2018-10-05T20:24:44.731Z,9.70
2018-10-05T20:27:14.046Z,11.60
2018-10-05T20:29:43.004Z,9.87
2018-10-05T20:32:27.706Z,8.20
2018-10-05T20:35:02.835Z,13.13
2018-10-05T20:37:32.023Z,12.20
2018-10-05T20:40:00.695Z,12.83
2018-10-05T20:42:29.910Z,14.10
2018-10-05T20:44:58.824Z,8.90
2018-10-05T20:47:28.043Z,12.37
2018-10-05T20:49:56.982Z,8.93
2018-10-05T20:52:25.834Z,10.20
2018-10-05T20:54:54.617Z,7.83
2018-10-05T20:57:23.857Z,12.70
2018-10-05T20:59:52.890Z,7.53
2018-10-05T21:02:21.717Z,10.63
2018-10-05T21:04:50.934Z,12.07
2018-10-05T21:07:19.909Z,9.63
2018-10-05T21:09:48.747Z,6.87
2018-10-05T21:12:17.648Z,10.30
2018-10-05T21:14:46.485Z,9.07
2018-10-05T21:17:15.695Z,10.37
2018-10-05T21:19:44.621Z,9.07
2018-10-05T21:22:13.879Z,10.80
2018-10-05T21:24:43.266Z,8.40
2018-10-05T21:27:13.151Z,8.20
2018-10-05T21:29:42.399Z,11.77
2018-10-05T21:32:11.746Z,6.57
2018-10-05T21:34:41.087Z,9.50
2018-10-05T21:37:10.382Z,10.33
2018-10-05T21:39:39.315Z,10.20
2018-10-05T21:42:08.522Z,12.67
2018-10-05T21:44:37.485Z,9.87
2018-10-05T21:47:06.354Z,14.70
2018-10-05T21:49:35.183Z,10.37
2018-10-05T21:52:04.196Z,11.87
2018-10-05T21:54:33.489Z,11.10
2018-10-05T21:57:02.496Z,16.70
2018-10-05T21:59:31.314Z,15.83
2018-10-05T22:02:00.551Z,12.93
2018-10-05T22:04:29.835Z,11.13
2018-10-05T22:06:59.228Z,16.43
2018-10-05T22:09:28.595Z,13.83
2018-10-05T22:11:57.595Z,14.07
2018-10-05T22:14:26.793Z,17.03
2018-10-05T22:16:55.953Z,10.03
2018-10-05T22:19:24.869Z,12.40
2018-10-05T22:21:53.649Z,12.47
2018-10-05T22:24:22.494Z,11.07
2018-10-05T22:26:51.330Z,10.17
2018-10-05T22:29:20.218Z,11.50
2018-10-05T22:31:49.461Z,17.57
2018-10-05T22:34:18.775Z,10.60
2018-10-05T22:36:48.078Z,17.00
2018-10-05T22:39:17.411Z,17.60
2018-10-05T22:41:46.317Z,13.80
2018-10-05T22:44:15.497Z,15.70
2018-10-05T22:46:44.331Z,12.00
2018-10-05T22:49:13.195Z,15.23
2018-10-05T22:51:42.396Z,13.40
2018-10-05T22:54:11.314Z,10.73
2018-10-05T22:56:40.533Z,8.93
2018-10-05T22:59:09.461Z,10.23
2018-10-05T23:01:38.746Z,14.90
2018-10-05T23:04:08.116Z,15.07
2018-10-05T23:06:37.430Z,11.33
2018-10-05T23:09:07.165Z,10.73
2018-10-05T23:11:36.191Z,16.30
2018-10-05T23:14:05.785Z,17.83
2018-10-05T23:16:34.720Z,15.13
2018-10-05T23:19:04.571Z,16.10
2018-10-05T23:21:34.017Z,18.73
2018-10-05T23:24:03.388Z,15.43
2018-10-05T23:26:32.425Z,19.17
2018-10-05T23:29:01.302Z,17.80
2018-10-05T23:31:30.521Z,12.97
2018-10-05T23:33:59.854Z,14.23
2018-10-05T23:36:29.174Z,15.87
2018-10-05T23:38:58.130Z,13.10
2018-10-05T23:41:26.969Z,18.07
2018-10-05T23:43:55.805Z,17.83
2018-10-05T23:46:25.045Z,12.63
2018-10-05T23:48:54.282Z,19.43
2018-10-05T23:51:23.541Z,16.03
2018-10-05T23:53:52.538Z,17.53
2018-10-05T23:56:21.795Z,16.37
2018-10-05T23:58:50.740Z,21.10
